KAPN/APN METAR and TAF weather

Enter ICAO airport designator
Station Type Date Time Source
KAPN METAR 2022/01/29 10:54 UTC NOAA

KAPN 291054Z AUTO 25005KT 10SM CLR M16/M19 A3020 RMK AO2 SLP246 T11561189


Station Type Date Time Source
KAPN Decoded METAR 2022/01/29 10:54 UTC NOAA

ALPENA COUNTY REGIONAL AIRPORT, MI, United States (KAPN) 45-05N 083-34W 210M
Jan 29, 2022 - 05:54 AM EST / 2022.01.29 1054 UTC
Wind: from the WSW (250 degrees) at 6 MPH (5 KT):0
Visibility: 10 mile(s):0
Sky conditions: clear
Temperature: 3.9 F (-15.6 C)
Windchill: -7 F (-22 C):2
Dew Point: -2.0 F (-18.9 C)
Relative Humidity: 75%
Pressure (altimeter): 30.2 in. Hg (1022 hPa)
ob: KAPN 291054Z AUTO 25005KT 10SM CLR M16/M19 A3020 RMK AO2 SLP246 T11561189
cycle: 11

Station Type Date Time Source
KAPN TAF 2022/01/29 06:22 UTC NOAA

TAF KAPN 290520Z 2906/3006 VRB03KT P6SM OVC035
FM291500 18005KT P6SM BKN040
FM300000 21003KT P6SM OVC035

Example: see airport list